KFTW

Fort Worth Meacham International Airport

Fort Worth, Texas, USA
KFTW 260309Z 2603/2624 27006KT P6SM SKC FM261400 34009KT P6SM SCT250
Issued Valid From Valid To
Apr-26 @ 03:09 UTC
(46 minutes ago)
Apr-26 @ 03:00 UTC
(55 minutes ago)
Apr-27 @ 00:00 UTC
(in 20 hours)
Apr-26 @ 03:00 to Apr-26 @ 14:00
KFTW 260309Z 2603/2624 27006KT P6SM SKC
Wind Visibility Clouds
270° at 6 knots Greater than 6 miles
  • Clear skies
From Apr-26 @ 14:00 to Apr-27 @ 00:00
FM261400 34009KT P6SM SCT250
Wind Visibility Clouds
340° at 9 knots Greater than 6 miles
  • Scattered at 25,000' AGL
KFTW 260309Z 2603/2624 27006KT P6SM SKC FM261400 34009KT P6SM SCT250
Issued Apr-26 @ 03:09 UTC
(46 minutes ago)
Valid From Apr-26 @ 03:00 UTC
(55 minutes ago)
Valid To Apr-27 @ 00:00 UTC
(in 20 hours)
Apr-26 @ 03:00 - Apr-26 @ 14:00
Wind Visibility
270° at 6 knots Greater than 6 miles
Clouds
  • Clear skies
From Apr-26 @ 14:00 - Apr-27 @ 00:00
Wind Visibility
340° at 9 knots Greater than 6 miles
Clouds
  • Scattered at 25,000' AGL